sensor_id;sensor_type;location;lat;lon;timestamp;pressure;altitude;pressure_sealevel;temperature;humidity
8140;BME280;4111;50.972;7.072;2022-11-04T00:02:03;99794.38;;;12.22;98.57
8140;BME280;4111;50.972;7.072;2022-11-04T00:04:30;99785.41;;;12.17;98.21
8140;BME280;4111;50.972;7.072;2022-11-04T00:06:56;99795.16;;;12.23;98.59
8140;BME280;4111;50.972;7.072;2022-11-04T00:09:25;99801.16;;;12.20;98.30
8140;BME280;4111;50.972;7.072;2022-11-04T00:11:53;99807.19;;;12.17;98.62
8140;BME280;4111;50.972;7.072;2022-11-04T00:14:38;99812.63;;;12.17;98.51
8140;BME280;4111;50.972;7.072;2022-11-04T00:17:05;99813.13;;;12.24;98.37
8140;BME280;4111;50.972;7.072;2022-11-04T00:19:52;99826.44;;;12.25;97.50
8140;BME280;4111;50.972;7.072;2022-11-04T00:22:40;99830.03;;;12.21;96.82
8140;BME280;4111;50.972;7.072;2022-11-04T00:25:25;99823.75;;;12.20;96.45
8140;BME280;4111;50.972;7.072;2022-11-04T00:28:17;99828.09;;;12.26;96.32
8140;BME280;4111;50.972;7.072;2022-11-04T00:31:05;99827.28;;;12.21;95.92
8140;BME280;4111;50.972;7.072;2022-11-04T00:33:53;99845.22;;;12.27;95.29
8140;BME280;4111;50.972;7.072;2022-11-04T00:36:20;99845.78;;;12.24;94.33
8140;BME280;4111;50.972;7.072;2022-11-04T00:38:48;99845.78;;;12.24;94.09
8140;BME280;4111;50.972;7.072;2022-11-04T00:41:14;99845.78;;;12.24;94.38
8140;BME280;4111;50.972;7.072;2022-11-04T00:43:59;99844.44;;;12.21;94.25
8140;BME280;4111;50.972;7.072;2022-11-04T00:46:28;99842.78;;;12.20;94.38
8140;BME280;4111;50.972;7.072;2022-11-04T00:48:55;99844.72;;;12.20;94.08
8140;BME280;4111;50.972;7.072;2022-11-04T00:51:21;99853.13;;;12.18;94.07
8140;BME280;4111;50.972;7.072;2022-11-04T00:53:48;99860.53;;;12.13;94.18
8140;BME280;4111;50.972;7.072;2022-11-04T00:56:15;99863.25;;;12.13;93.72
8140;BME280;4111;50.972;7.072;2022-11-04T00:58:42;99868.19;;;12.00;93.67
8140;BME280;4111;50.972;7.072;2022-11-04T01:01:13;99873.34;;;12.02;93.43
8140;BME280;4111;50.972;7.072;2022-11-04T01:03:44;99879.91;;;12.01;93.59
8140;BME280;4111;50.972;7.072;2022-11-04T01:06:11;99886.16;;;12.01;93.90
8140;BME280;4111;50.972;7.072;2022-11-04T01:08:37;99889.41;;;12.03;94.03
8140;BME280;4111;50.972;7.072;2022-11-04T01:11:05;99879.06;;;12.10;94.11
8140;BME280;4111;50.972;7.072;2022-11-04T01:13:32;99887.75;;;12.07;94.18
8140;BME280;4111;50.972;7.072;2022-11-04T01:16:00;99900.25;;;12.14;94.02
8140;BME280;4111;50.972;7.072;2022-11-04T01:18:26;99897.53;;;12.19;93.71
8140;BME280;4111;50.972;7.072;2022-11-04T01:20:53;99903.50;;;12.16;93.04
8140;BME280;4111;50.972;7.072;2022-11-04T01:23:20;99903.50;;;12.16;93.13
8140;BME280;4111;50.972;7.072;2022-11-04T01:25:47;99905.69;;;12.14;93.95
8140;BME280;4111;50.972;7.072;2022-11-04T01:28:13;99900.81;;;12.10;93.63
8140;BME280;4111;50.972;7.072;2022-11-04T01:30:39;99908.69;;;12.17;93.20
8140;BME280;4111;50.972;7.072;2022-11-04T01:33:06;99918.19;;;12.25;93.61
8140;BME280;4111;50.972;7.072;2022-11-04T01:35:32;99921.44;;;12.27;93.63
8140;BME280;4111;50.972;7.072;2022-11-04T01:37:59;99917.59;;;12.28;93.31
8140;BME280;4111;50.972;7.072;2022-11-04T01:40:26;99919.78;;;12.26;93.13
8140;BME280;4111;50.972;7.072;2022-11-04T01:42:52;99922.50;;;12.26;92.97
8140;BME280;4111;50.972;7.072;2022-11-04T01:45:20;99928.53;;;12.18;93.14
8140;BME280;4111;50.972;7.072;2022-11-04T01:48:09;99925.28;;;12.16;93.03
8140;BME280;4111;50.972;7.072;2022-11-04T01:50:37;99939.72;;;12.11;93.16
8140;BME280;4111;50.972;7.072;2022-11-04T01:53:08;99930.75;;;12.10;93.01
8140;BME280;4111;50.972;7.072;2022-11-04T01:55:40;99932.63;;;12.10;92.62
8140;BME280;4111;50.972;7.072;2022-11-04T01:58:10;99926.91;;;12.06;92.40
8140;BME280;4111;50.972;7.072;2022-11-04T02:00:39;99929.13;;;11.99;92.17
8140;BME280;4111;50.972;7.072;2022-11-04T02:03:17;99940.00;;;12.04;92.12
8140;BME280;4111;50.972;7.072;2022-11-04T02:05:45;99938.38;;;12.03;91.70
8140;BME280;4111;50.972;7.072;2022-11-04T02:08:13;99940.03;;;11.94;91.24
8140;BME280;4111;50.972;7.072;2022-11-04T02:10:46;99938.41;;;11.93;91.22
8140;BME280;4111;50.972;7.072;2022-11-04T02:13:13;99933.50;;;11.90;91.28
8140;BME280;4111;50.972;7.072;2022-11-04T02:16:18;99940.28;;;11.87;91.64
8140;BME280;4111;50.972;7.072;2022-11-04T02:21:40;99926.69;;;11.82;91.26
8140;BME280;4111;50.972;7.072;2022-11-04T02:24:31;99927.78;;;11.76;91.22
8140;BME280;4111;50.972;7.072;2022-11-04T02:27:22;99922.09;;;11.67;91.65
8140;BME280;4111;50.972;7.072;2022-11-04T02:30:24;99916.38;;;11.64;91.36
8140;BME280;4111;50.972;7.072;2022-11-04T02:33:02;99924.28;;;11.65;91.58
8140;BME280;4111;50.972;7.072;2022-11-04T02:35:40;99921.53;;;11.55;91.38
8140;BME280;4111;50.972;7.072;2022-11-04T02:38:18;99927.53;;;11.52;91.64
8140;BME280;4111;50.972;7.072;2022-11-04T02:41:11;99919.09;;;11.48;91.56
8140;BME280;4111;50.972;7.072;2022-11-04T02:44:11;99919.41;;;11.42;91.23
8140;BME280;4111;50.972;7.072;2022-11-04T02:46:50;99915.59;;;11.38;91.57
8140;BME280;4111;50.972;7.072;2022-11-04T02:49:38;99920.47;;;11.30;91.30
8140;BME280;4111;50.972;7.072;2022-11-04T02:52:11;99913.41;;;11.24;91.66
8140;BME280;4111;50.972;7.072;2022-11-04T02:54:50;99912.84;;;11.17;91.53
8140;BME280;4111;50.972;7.072;2022-11-04T02:57:23;99908.50;;;11.11;91.73
8140;BME280;4111;50.972;7.072;2022-11-04T02:59:59;99912.59;;;11.08;91.73
8140;BME280;4111;50.972;7.072;2022-11-04T03:02:32;99910.66;;;11.09;91.86
8140;BME280;4111;50.972;7.072;2022-11-04T03:05:01;99914.47;;;11.13;91.69
8140;BME280;4111;50.972;7.072;2022-11-04T03:07:32;99912.84;;;11.07;91.57
8140;BME280;4111;50.972;7.072;2022-11-04T03:10:04;99911.22;;;11.11;91.37
8140;BME280;4111;50.972;7.072;2022-11-04T03:12:39;99919.94;;;11.08;91.78
8140;BME280;4111;50.972;7.072;2022-11-04T03:15:16;99913.94;;;11.06;91.32
8140;BME280;4111;50.972;7.072;2022-11-04T03:20:31;99913.66;;;11.02;91.49
8140;BME280;4111;50.972;7.072;2022-11-04T03:22:58;99918.81;;;10.99;91.67
8140;BME280;4111;50.972;7.072;2022-11-04T03:25:29;99910.09;;;10.91;91.89
8140;BME280;4111;50.972;7.072;2022-11-04T03:28:21;99918.25;;;10.91;92.07
8140;BME280;4111;50.972;7.072;2022-11-04T03:30:54;99911.72;;;10.87;92.05
8140;BME280;4111;50.972;7.072;2022-11-04T03:33:34;99909.56;;;10.89;92.50
8140;BME280;4111;50.972;7.072;2022-11-04T03:36:05;99914.44;;;10.82;92.61
8140;BME280;4111;50.972;7.072;2022-11-04T03:38:34;99913.34;;;10.83;92.69
8140;BME280;4111;50.972;7.072;2022-11-04T03:41:03;99912.78;;;10.76;92.92
8140;BME280;4111;50.972;7.072;2022-11-04T03:43:34;99910.63;;;10.73;93.20
8140;BME280;4111;50.972;7.072;2022-11-04T03:46:02;99909.53;;;10.69;93.33
8140;BME280;4111;50.972;7.072;2022-11-04T03:48:28;99908.44;;;10.65;93.40
8140;BME280;4111;50.972;7.072;2022-11-04T03:50:55;99911.66;;;10.57;93.54
8140;BME280;4111;50.972;7.072;2022-11-04T03:53:22;99913.28;;;10.58;93.65
8140;BME280;4111;50.972;7.072;2022-11-04T03:56:12;99905.66;;;10.49;93.44
8140;BME280;4111;50.972;7.072;2022-11-04T03:59:11;99920.28;;;10.38;93.76
8140;BME280;4111;50.972;7.072;2022-11-04T04:01:55;99920.25;;;10.33;94.23
8140;BME280;4111;50.972;7.072;2022-11-04T04:04:31;99917.56;;;10.33;94.54
8140;BME280;4111;50.972;7.072;2022-11-04T04:07:14;99917.56;;;10.33;94.25
8140;BME280;4111;50.972;7.072;2022-11-04T04:09:49;99912.63;;;10.30;94.11
8140;BME280;4111;50.972;7.072;2022-11-04T04:12:30;99911.22;;;10.22;94.51
8140;BME280;4111;50.972;7.072;2022-11-04T04:15:06;99903.81;;;10.02;94.63
8140;BME280;4111;50.972;7.072;2022-11-04T04:17:58;99901.63;;;9.99;94.91
8140;BME280;4111;50.972;7.072;2022-11-04T04:20:28;99906.00;;;10.05;95.10
8140;BME280;4111;50.972;7.072;2022-11-04T04:23:03;99901.78;;;9.82;95.55
8140;BME280;4111;50.972;7.072;2022-11-04T04:25:52;99904.81;;;9.91;95.69
8140;BME280;4111;50.972;7.072;2022-11-04T04:28:37;99919.97;;;9.87;96.13
8140;BME280;4111;50.972;7.072;2022-11-04T04:31:06;99924.09;;;9.89;96.06
8140;BME280;4111;50.972;7.072;2022-11-04T04:33:34;99934.09;;;9.89;96.57
8140;BME280;4111;50.972;7.072;2022-11-04T04:36:00;99933.53;;;9.82;96.26
8140;BME280;4111;50.972;7.072;2022-11-04T04:38:29;99938.94;;;9.82;96.62
8140;BME280;4111;50.972;7.072;2022-11-04T04:41:25;99937.00;;;9.77;96.54
8140;BME280;4111;50.972;7.072;2022-11-04T04:44:23;99942.97;;;9.79;97.19
8140;BME280;4111;50.972;7.072;2022-11-04T04:47:10;99942.16;;;9.79;97.12
8140;BME280;4111;50.972;7.072;2022-11-04T04:49:49;99948.13;;;9.81;97.04
8140;BME280;4111;50.972;7.072;2022-11-04T04:52:15;99952.44;;;9.77;96.88
8140;BME280;4111;50.972;7.072;2022-11-04T04:54:42;99947.03;;;9.77;96.49
8140;BME280;4111;50.972;7.072;2022-11-04T04:57:10;99939.44;;;9.73;96.24
8140;BME280;4111;50.972;7.072;2022-11-04T04:59:36;99942.66;;;9.70;96.44
8140;BME280;4111;50.972;7.072;2022-11-04T05:02:03;99934.78;;;9.69;96.26
8140;BME280;4111;50.972;7.072;2022-11-04T05:04:29;99933.09;;;9.63;96.53
8140;BME280;4111;50.972;7.072;2022-11-04T05:06:56;99926.03;;;9.57;96.62
8140;BME280;4111;50.972;7.072;2022-11-04T05:09:22;99939.31;;;9.58;96.66
8140;BME280;4111;50.972;7.072;2022-11-04T05:11:48;99944.44;;;9.55;96.29
8140;BME280;4111;50.972;7.072;2022-11-04T05:14:15;99940.34;;;9.52;96.40
8140;BME280;4111;50.972;7.072;2022-11-04T05:16:41;99944.94;;;9.51;96.06
8140;BME280;4111;50.972;7.072;2022-11-04T05:19:08;99940.63;;;9.56;96.17
8140;BME280;4111;50.972;7.072;2022-11-04T05:21:34;99942.22;;;9.51;96.33
8140;BME280;4111;50.972;7.072;2022-11-04T05:24:01;99938.22;;;9.54;96.43
8140;BME280;4111;50.972;7.072;2022-11-04T05:26:27;99941.50;;;9.61;96.28
8140;BME280;4111;50.972;7.072;2022-11-04T05:28:54;99942.06;;;9.63;96.28
8140;BME280;4111;50.972;7.072;2022-11-04T05:31:20;99945.28;;;9.60;96.02
8140;BME280;4111;50.972;7.072;2022-11-04T05:33:46;99945.31;;;9.65;96.06
8140;BME280;4111;50.972;7.072;2022-11-04T05:36:15;99945.56;;;9.59;96.18
8140;BME280;4111;50.972;7.072;2022-11-04T05:38:42;99944.19;;;9.61;96.24
8140;BME280;4111;50.972;7.072;2022-11-04T05:41:10;99954.00;;;9.67;96.13
8140;BME280;4111;50.972;7.072;2022-11-04T05:43:37;99939.38;;;9.68;96.27
8140;BME280;4111;50.972;7.072;2022-11-04T05:46:03;99941.53;;;9.66;96.03
8140;BME280;4111;50.972;7.072;2022-11-04T05:48:30;99949.94;;;9.65;95.85
8140;BME280;4111;50.972;7.072;2022-11-04T05:51:01;99946.34;;;9.59;96.00
8140;BME280;4111;50.972;7.072;2022-11-04T05:53:28;99949.06;;;9.59;96.31
8140;BME280;4111;50.972;7.072;2022-11-04T05:55:54;99954.28;;;9.33;96.80
8140;BME280;4111;50.972;7.072;2022-11-04T05:58:20;99954.19;;;9.23;97.14
8140;BME280;4111;50.972;7.072;2022-11-04T06:00:47;99952.09;;;9.30;97.57
8140;BME280;4111;50.972;7.072;2022-11-04T06:03:13;99954.81;;;9.30;97.61
8140;BME280;4111;50.972;7.072;2022-11-04T06:05:41;99954.59;;;9.37;97.55
8140;BME280;4111;50.972;7.072;2022-11-04T06:08:08;99957.03;;;9.39;97.49
8140;BME280;4111;50.972;7.072;2022-11-04T06:10:35;99955.94;;;9.35;97.50
8140;BME280;4111;50.972;7.072;2022-11-04T06:13:01;99961.66;;;9.38;97.43
8140;BME280;4111;50.972;7.072;2022-11-04T06:15:28;99962.47;;;9.44;97.71
8140;BME280;4111;50.972;7.072;2022-11-04T06:17:54;99971.16;;;9.41;96.99
8140;BME280;4111;50.972;7.072;2022-11-04T06:20:20;99977.03;;;9.32;97.14
8140;BME280;4111;50.972;7.072;2022-11-04T06:22:47;99983.47;;;9.26;97.23
8140;BME280;4111;50.972;7.072;2022-11-04T06:25:13;99980.78;;;9.26;97.31
8140;BME280;4111;50.972;7.072;2022-11-04T06:27:40;99980.25;;;9.29;97.31
8140;BME280;4111;50.972;7.072;2022-11-04T06:30:06;99982.47;;;9.32;98.03
8140;BME280;4111;50.972;7.072;2022-11-04T06:32:33;99985.06;;;9.22;97.60
8140;BME280;4111;50.972;7.072;2022-11-04T06:34:59;99989.78;;;9.05;98.07
8140;BME280;4111;50.972;7.072;2022-11-04T06:37:26;99995.06;;;8.95;98.12
8140;BME280;4111;50.972;7.072;2022-11-04T06:39:52;99993.44;;;8.93;98.30
8140;BME280;4111;50.972;7.072;2022-11-04T06:42:19;100006.91;;;8.88;98.40
8140;BME280;4111;50.972;7.072;2022-11-04T06:44:45;100001.19;;;8.85;99.13
8140;BME280;4111;50.972;7.072;2022-11-04T06:47:11;100004.06;;;9.00;98.91
8140;BME280;4111;50.972;7.072;2022-11-04T06:49:38;100000.06;;;9.08;98.64
8140;BME280;4111;50.972;7.072;2022-11-04T06:52:05;100007.75;;;9.16;98.74
8140;BME280;4111;50.972;7.072;2022-11-04T06:54:31;100008.03;;;9.20;97.90
8140;BME280;4111;50.972;7.072;2022-11-04T06:56:57;100011.31;;;9.22;98.13
8140;BME280;4111;50.972;7.072;2022-11-04T06:59:24;100023.50;;;9.19;98.70
8140;BME280;4111;50.972;7.072;2022-11-04T07:01:50;100024.88;;;9.22;98.82
8140;BME280;4111;50.972;7.072;2022-11-04T07:04:17;100025.44;;;9.24;98.78
8140;BME280;4111;50.972;7.072;2022-11-04T07:06:44;100025.50;;;9.29;98.99
8140;BME280;4111;50.972;7.072;2022-11-04T07:09:13;100034.44;;;9.29;99.00
8140;BME280;4111;50.972;7.072;2022-11-04T07:11:41;100040.66;;;9.30;98.81
8140;BME280;4111;50.972;7.072;2022-11-04T07:14:09;100050.78;;;9.40;98.59
8140;BME280;4111;50.972;7.072;2022-11-04T07:16:35;100052.69;;;9.39;98.61
8140;BME280;4111;50.972;7.072;2022-11-04T07:19:02;100049.78;;;9.46;98.38
8140;BME280;4111;50.972;7.072;2022-11-04T07:21:29;100051.97;;;9.49;98.09
8140;BME280;4111;50.972;7.072;2022-11-04T07:23:55;100052.03;;;9.54;98.19
8140;BME280;4111;50.972;7.072;2022-11-04T07:26:21;100054.19;;;9.57;97.92
8140;BME280;4111;50.972;7.072;2022-11-04T07:28:48;100060.75;;;9.61;98.25
8140;BME280;4111;50.972;7.072;2022-11-04T07:31:14;100073.31;;;9.72;98.11
8140;BME280;4111;50.972;7.072;2022-11-04T07:33:42;100081.47;;;9.72;97.93
8140;BME280;4111;50.972;7.072;2022-11-04T07:36:11;100089.66;;;9.78;98.40
8140;BME280;4111;50.972;7.072;2022-11-04T07:38:38;100092.94;;;9.85;98.26
8140;BME280;4111;50.972;7.072;2022-11-04T07:41:04;100092.91;;;9.80;98.26
8140;BME280;4111;50.972;7.072;2022-11-04T07:43:30;100095.34;;;9.81;98.49
8140;BME280;4111;50.972;7.072;2022-11-04T07:46:10;100092.69;;;9.86;98.22
8140;BME280;4111;50.972;7.072;2022-11-04T07:48:37;100101.69;;;9.92;98.07
8140;BME280;4111;50.972;7.072;2022-11-04T07:51:05;100091.97;;;9.96;98.14
8140;BME280;4111;50.972;7.072;2022-11-04T07:53:32;100101.22;;;10.00;98.05
8140;BME280;4111;50.972;7.072;2022-11-04T07:56:02;100097.47;;;10.06;97.51
8140;BME280;4111;50.972;7.072;2022-11-04T07:58:29;100094.50;;;10.08;97.33
8140;BME280;4111;50.972;7.072;2022-11-04T08:01:00;100098.09;;;10.13;97.23
8140;BME280;4111;50.972;7.072;2022-11-04T08:03:27;100097.28;;;10.13;97.69
8140;BME280;4111;50.972;7.072;2022-11-04T08:05:57;100098.91;;;10.14;97.70
8140;BME280;4111;50.972;7.072;2022-11-04T08:08:25;100093.53;;;10.19;97.86
8140;BME280;4111;50.972;7.072;2022-11-04T08:10:54;100087.88;;;10.26;98.03
8140;BME280;4111;50.972;7.072;2022-11-04T08:13:22;100104.22;;;10.31;97.86
8140;BME280;4111;50.972;7.072;2022-11-04T08:15:49;100102.34;;;10.37;98.36
8140;BME280;4111;50.972;7.072;2022-11-04T08:18:15;100106.75;;;10.43;98.55
8140;BME280;4111;50.972;7.072;2022-11-04T08:20:47;100106.81;;;10.53;98.75
8140;BME280;4111;50.972;7.072;2022-11-04T08:23:16;100111.50;;;10.63;98.57
8140;BME280;4111;50.972;7.072;2022-11-04T08:25:42;100108.72;;;10.58;98.50
8140;BME280;4111;50.972;7.072;2022-11-04T08:28:08;100104.34;;;10.51;98.46
8140;BME280;4111;50.972;7.072;2022-11-04T08:30:38;100101.94;;;10.55;99.31
8140;BME280;4111;50.972;7.072;2022-11-04T08:33:04;100097.06;;;10.57;99.52
8140;BME280;4111;50.972;7.072;2022-11-04T08:35:33;100093.53;;;10.62;99.87
8140;BME280;4111;50.972;7.072;2022-11-04T08:38:06;100094.44;;;10.73;100.00
8140;BME280;4111;50.972;7.072;2022-11-04T08:40:32;100095.84;;;10.80;100.00
8140;BME280;4111;50.972;7.072;2022-11-04T08:42:58;100095.84;;;10.80;100.00
8140;BME280;4111;50.972;7.072;2022-11-04T08:45:25;100091.72;;;10.78;100.00
8140;BME280;4111;50.972;7.072;2022-11-04T08:47:58;100099.31;;;10.76;100.00
8140;BME280;4111;50.972;7.072;2022-11-04T08:50:30;100101.78;;;10.77;100.00
8140;BME280;4111;50.972;7.072;2022-11-04T08:52:57;100099.66;;;10.89;100.00
8140;BME280;4111;50.972;7.072;2022-11-04T08:55:23;100104.34;;;10.99;100.00
8140;BME280;4111;50.972;7.072;2022-11-04T08:57:50;100108.41;;;11.02;100.00
8140;BME280;4111;50.972;7.072;2022-11-04T09:00:16;100102.47;;;11.05;100.00
8140;BME280;4111;50.972;7.072;2022-11-04T09:02:42;100104.63;;;11.03;100.00
8140;BME280;4111;50.972;7.072;2022-11-04T09:05:09;100115.78;;;11.06;100.00
8140;BME280;4111;50.972;7.072;2022-11-04T09:07:36;100114.44;;;11.09;100.00
8140;BME280;4111;50.972;7.072;2022-11-04T09:10:03;100109.56;;;11.16;100.00
8140;BME280;4111;50.972;7.072;2022-11-04T09:12:31;100109.59;;;11.21;100.00
8140;BME280;4111;50.972;7.072;2022-11-04T09:14:57;100111.00;;;11.34;100.00
8140;BME280;4111;50.972;7.072;2022-11-04T09:17:24;100100.16;;;11.44;100.00
8140;BME280;4111;50.972;7.072;2022-11-04T09:19:50;100098.84;;;11.57;100.00
8140;BME280;4111;50.972;7.072;2022-11-04T09:22:17;100092.84;;;11.60;100.00
8140;BME280;4111;50.972;7.072;2022-11-04T09:24:43;100094.50;;;11.61;100.00
8140;BME280;4111;50.972;7.072;2022-11-04T09:27:09;100099.38;;;11.64;100.00
8140;BME280;4111;50.972;7.072;2022-11-04T09:29:36;100110.81;;;11.71;100.00
8140;BME280;4111;50.972;7.072;2022-11-04T09:32:03;100109.44;;;11.74;100.00
8140;BME280;4111;50.972;7.072;2022-11-04T09:34:29;100110.81;;;11.82;100.00
8140;BME280;4111;50.972;7.072;2022-11-04T09:36:56;100115.75;;;11.90;100.00
8140;BME280;4111;50.972;7.072;2022-11-04T09:39:24;100109.22;;;11.96;99.87
8140;BME280;4111;50.972;7.072;2022-11-04T09:44:37;100098.63;;;12.00;98.94
8140;BME280;4111;50.972;7.072;2022-11-04T09:47:26;100097.81;;;11.99;98.41
8140;BME280;4111;50.972;7.072;2022-11-04T09:49:55;100094.28;;;11.99;97.91
8140;BME280;4111;50.972;7.072;2022-11-04T09:52:30;100105.97;;;11.99;98.03
8140;BME280;4111;50.972;7.072;2022-11-04T09:55:02;100111.69;;;12.03;98.14
8140;BME280;4111;50.972;7.072;2022-11-04T09:57:31;100118.47;;;12.00;97.85
8140;BME280;4111;50.972;7.072;2022-11-04T09:59:58;100118.78;;;11.99;97.54
8140;BME280;4111;50.972;7.072;2022-11-04T10:08:38;100116.03;;;12.14;98.00
8140;BME280;4111;50.972;7.072;2022-11-04T10:17:00;100121.19;;;12.62;98.07
8140;BME280;4111;50.972;7.072;2022-11-04T10:19:58;100121.16;;;12.67;96.79
8140;BME280;4111;50.972;7.072;2022-11-04T10:22:32;100123.03;;;12.82;96.69
8140;BME280;4111;50.972;7.072;2022-11-04T10:25:20;100124.88;;;12.97;96.46
8140;BME280;4111;50.972;7.072;2022-11-04T10:27:48;100125.97;;;13.06;96.58
8140;BME280;4111;50.972;7.072;2022-11-04T10:30:25;100119.41;;;13.12;96.25
8140;BME280;4111;50.972;7.072;2022-11-04T10:33:07;100118.84;;;13.10;95.51
8140;BME280;4111;50.972;7.072;2022-11-04T10:35:47;100127.88;;;13.05;95.44
8140;BME280;4111;50.972;7.072;2022-11-04T10:38:21;100121.84;;;13.14;95.43
8140;BME280;4111;50.972;7.072;2022-11-04T10:40:51;100125.38;;;13.14;94.28
8140;BME280;4111;50.972;7.072;2022-11-04T10:43:33;100129.75;;;13.10;93.09
8140;BME280;4111;50.972;7.072;2022-11-04T10:51:43;100127.06;;;13.00;91.67
8140;BME280;4111;50.972;7.072;2022-11-04T10:54:10;100144.53;;;12.94;91.38
8140;BME280;4111;50.972;7.072;2022-11-04T10:59:25;100142.28;;;13.11;90.06
8140;BME280;4111;50.972;7.072;2022-11-04T11:01:55;100152.06;;;13.27;89.72
8140;BME280;4111;50.972;7.072;2022-11-04T11:04:34;100144.13;;;13.36;88.63
8140;BME280;4111;50.972;7.072;2022-11-04T11:07:04;100152.50;;;13.50;88.08
8140;BME280;4111;50.972;7.072;2022-11-04T11:09:32;100158.44;;;13.62;87.83
8140;BME280;4111;50.972;7.072;2022-11-04T11:12:04;100165.00;;;13.66;87.52
8140;BME280;4111;50.972;7.072;2022-11-04T11:14:51;100171.06;;;13.53;86.85
8140;BME280;4111;50.972;7.072;2022-11-04T11:17:23;100178.13;;;13.54;86.93
8140;BME280;4111;50.972;7.072;2022-11-04T11:19:59;100165.59;;;13.53;86.25
8140;BME280;4111;50.972;7.072;2022-11-04T11:22:41;100166.69;;;13.52;86.72
8140;BME280;4111;50.972;7.072;2022-11-04T11:27:51;100166.59;;;13.67;86.93
8140;BME280;4111;50.972;7.072;2022-11-04T11:30:27;100166.59;;;13.67;86.76
8140;BME280;4111;50.972;7.072;2022-11-04T11:32:57;100169.66;;;13.61;86.39
8140;BME280;4111;50.972;7.072;2022-11-04T11:35:29;100166.72;;;13.47;85.40
8140;BME280;4111;50.972;7.072;2022-11-04T11:37:58;100165.59;;;13.53;85.37
8140;BME280;4111;50.972;7.072;2022-11-04T11:40:31;100161.22;;;13.57;85.26
8140;BME280;4111;50.972;7.072;2022-11-04T11:43:00;100166.88;;;13.66;85.19
8140;BME280;4111;50.972;7.072;2022-11-04T11:45:28;100162.50;;;13.70;84.56
8140;BME280;4111;50.972;7.072;2022-11-04T11:47:56;100166.06;;;13.71;84.63
8140;BME280;4111;50.972;7.072;2022-11-04T11:50:28;100172.00;;;13.78;84.27
8140;BME280;4111;50.972;7.072;2022-11-04T11:53:17;100174.72;;;13.83;83.86
8140;BME280;4111;50.972;7.072;2022-11-04T11:56:05;100169.63;;;14.11;83.34
8140;BME280;4111;50.972;7.072;2022-11-04T11:58:41;100174.28;;;14.10;82.31
8140;BME280;4111;50.972;7.072;2022-11-04T12:01:33;100169.78;;;14.24;82.59
8140;BME280;4111;50.972;7.072;2022-11-04T12:04:03;100167.66;;;14.51;82.20
8140;BME280;4111;50.972;7.072;2022-11-04T12:07:14;100166.59;;;14.46;80.28
8140;BME280;4111;50.972;7.072;2022-11-04T12:10:14;100167.66;;;14.85;79.83
8140;BME280;4111;50.972;7.072;2022-11-04T12:16:32;100168.09;;;14.92;77.89
8140;BME280;4111;50.972;7.072;2022-11-04T12:19:07;100170.59;;;14.88;77.58
8140;BME280;4111;50.972;7.072;2022-11-04T12:24:54;100179.19;;;14.77;77.85
8140;BME280;4111;50.972;7.072;2022-11-04T12:27:44;100171.34;;;14.70;77.18
8140;BME280;4111;50.972;7.072;2022-11-04T12:30:15;100176.13;;;14.83;77.04
8140;BME280;4111;50.972;7.072;2022-11-04T12:35:51;100179.25;;;14.72;75.20
8140;BME280;4111;50.972;7.072;2022-11-04T12:38:41;100175.38;;;14.78;75.18
8140;BME280;4111;50.972;7.072;2022-11-04T12:41:33;100180.81;;;15.07;75.79
8140;BME280;4111;50.972;7.072;2022-11-04T12:44:32;100176.25;;;15.21;74.90
8140;BME280;4111;50.972;7.072;2022-11-04T12:49:48;100185.00;;;15.23;73.69
8140;BME280;4111;50.972;7.072;2022-11-04T12:52:47;100182.66;;;15.12;73.55
8140;BME280;4111;50.972;7.072;2022-11-04T12:55:24;100189.84;;;15.02;74.66
8140;BME280;4111;50.972;7.072;2022-11-04T12:58:15;100184.97;;;14.75;75.53
8140;BME280;4111;50.972;7.072;2022-11-04T13:00:51;100198.81;;;14.50;76.08
8140;BME280;4111;50.972;7.072;2022-11-04T13:06:30;100201.66;;;14.34;77.68
8140;BME280;4111;50.972;7.072;2022-11-04T13:09:12;100206.09;;;14.25;78.13
8140;BME280;4111;50.972;7.072;2022-11-04T13:12:03;100208.31;;;14.18;78.26
8140;BME280;4111;50.972;7.072;2022-11-04T13:14:43;100215.75;;;14.12;78.87
8140;BME280;4111;50.972;7.072;2022-11-04T13:17:15;100216.63;;;14.02;79.45
8140;BME280;4111;50.972;7.072;2022-11-04T13:19:50;100215.53;;;14.03;79.96
8140;BME280;4111;50.972;7.072;2022-11-04T13:22:26;100214.50;;;13.94;79.78
8140;BME280;4111;50.972;7.072;2022-11-04T13:25:04;100217.22;;;13.94;80.24
8140;BME280;4111;50.972;7.072;2022-11-04T13:27:42;100226.56;;;13.83;80.51
8140;BME280;4111;50.972;7.072;2022-11-04T13:30:32;100223.59;;;13.74;80.51
8140;BME280;4111;50.972;7.072;2022-11-04T13:33:23;100232.09;;;13.67;80.66
8140;BME280;4111;50.972;7.072;2022-11-04T13:38:43;100234.88;;;13.52;81.23
8140;BME280;4111;50.972;7.072;2022-11-04T13:43:58;100239.72;;;13.65;81.95
8140;BME280;4111;50.972;7.072;2022-11-04T13:46:29;100247.34;;;13.74;81.86
8140;BME280;4111;50.972;7.072;2022-11-04T13:48:57;100248.44;;;13.67;81.68
8140;BME280;4111;50.972;7.072;2022-11-04T13:52:22;100253.09;;;13.67;81.78
8140;BME280;4111;50.972;7.072;2022-11-04T13:54:37;100254.44;;;13.64;82.11
8140;BME280;4111;50.972;7.072;2022-11-04T13:57:14;100255.53;;;13.74;81.97
8140;BME280;4111;50.972;7.072;2022-11-04T13:59:42;100258.81;;;13.71;81.61
8140;BME280;4111;50.972;7.072;2022-11-04T14:02:52;100261.56;;;13.71;81.99
8140;BME280;4111;50.972;7.072;2022-11-04T14:16:04;100275.75;;;13.67;80.02
8140;BME280;4111;50.972;7.072;2022-11-04T14:18:39;100271.66;;;13.60;80.20
8140;BME280;4111;50.972;7.072;2022-11-04T14:21:11;100275.75;;;13.62;80.57
8140;BME280;4111;50.972;7.072;2022-11-04T14:23:40;100276.31;;;13.54;80.98
8140;BME280;4111;50.972;7.072;2022-11-04T14:26:09;100275.50;;;13.59;82.00
8140;BME280;4111;50.972;7.072;2022-11-04T14:28:37;100283.94;;;13.62;82.13
8140;BME280;4111;50.972;7.072;2022-11-04T14:31:06;100292.09;;;13.62;81.70
8140;BME280;4111;50.972;7.072;2022-11-04T14:33:51;100299.22;;;13.63;81.88
8140;BME280;4111;50.972;7.072;2022-11-04T14:39:05;100310.38;;;13.67;82.08
8140;BME280;4111;50.972;7.072;2022-11-04T14:46:55;100321.56;;;13.65;82.69
8140;BME280;4111;50.972;7.072;2022-11-04T14:49:36;100321.56;;;13.71;83.09
8140;BME280;4111;50.972;7.072;2022-11-04T14:52:28;100329.22;;;13.63;83.69
8140;BME280;4111;50.972;7.072;2022-11-04T14:55:16;100332.25;;;13.52;85.04
8140;BME280;4111;50.972;7.072;2022-11-04T14:57:44;100335.81;;;13.47;85.95
8140;BME280;4111;50.972;7.072;2022-11-04T15:00:30;100328.72;;;13.46;85.90